sensor_id;sensor_type;location;lat;lon;timestamp;temperature;humidity
30150;DHT22;16962;48.646;9.026;2022-09-27T00:02:15;8.40;99.90
30150;DHT22;16962;48.646;9.026;2022-09-27T00:05:02;8.50;99.90
30150;DHT22;16962;48.646;9.026;2022-09-27T00:07:50;8.40;99.90
30150;DHT22;16962;48.646;9.026;2022-09-27T00:10:37;8.40;99.90
30150;DHT22;16962;48.646;9.026;2022-09-27T00:13:26;8.40;1.00
30150;DHT22;16962;48.646;9.026;2022-09-27T00:16:16;8.40;1.00
30150;DHT22;16962;48.646;9.026;2022-09-27T00:19:06;8.40;1.00
30150;DHT22;16962;48.646;9.026;2022-09-27T00:21:55;8.40;26.20
30150;DHT22;16962;48.646;9.026;2022-09-27T00:24:42;8.40;48.90
30150;DHT22;16962;48.646;9.026;2022-09-27T00:27:29;8.40;99.90
30150;DHT22;16962;48.646;9.026;2022-09-27T00:30:16;8.40;99.90
30150;DHT22;16962;48.646;9.026;2022-09-27T00:33:03;8.40;99.90
30150;DHT22;16962;48.646;9.026;2022-09-27T00:36:03;8.50;99.90
30150;DHT22;16962;48.646;9.026;2022-09-27T00:38:53;8.40;1.00
30150;DHT22;16962;48.646;9.026;2022-09-27T00:41:40;8.40;1.00
30150;DHT22;16962;48.646;9.026;2022-09-27T00:47:34;8.50;99.90
30150;DHT22;16962;48.646;9.026;2022-09-27T00:50:36;8.40;1.00
30150;DHT22;16962;48.646;9.026;2022-09-27T00:53:36;8.40;99.90
30150;DHT22;16962;48.646;9.026;2022-09-27T00:56:28;8.40;1.00
30150;DHT22;16962;48.646;9.026;2022-09-27T00:59:27;8.40;1.00
30150;DHT22;16962;48.646;9.026;2022-09-27T01:02:15;8.50;99.90
30150;DHT22;16962;48.646;9.026;2022-09-27T01:05:08;8.50;99.90
30150;DHT22;16962;48.646;9.026;2022-09-27T01:07:58;8.50;99.90
30150;DHT22;16962;48.646;9.026;2022-09-27T01:11:07;8.50;99.90
30150;DHT22;16962;48.646;9.026;2022-09-27T01:32:49;8.60;1.00
30150;DHT22;16962;48.646;9.026;2022-09-27T01:35:51;8.60;99.90
30150;DHT22;16962;48.646;9.026;2022-09-27T01:45:19;8.70;99.90
30150;DHT22;16962;48.646;9.026;2022-09-27T01:48:22;8.70;99.90
30150;DHT22;16962;48.646;9.026;2022-09-27T01:51:10;8.70;99.90
30150;DHT22;16962;48.646;9.026;2022-09-27T01:54:02;8.70;99.90
30150;DHT22;16962;48.646;9.026;2022-09-27T01:56:56;8.70;99.90
30150;DHT22;16962;48.646;9.026;2022-09-27T01:59:48;8.70;99.90
30150;DHT22;16962;48.646;9.026;2022-09-27T02:02:50;8.70;1.00
30150;DHT22;16962;48.646;9.026;2022-09-27T02:08:42;8.70;99.90
30150;DHT22;16962;48.646;9.026;2022-09-27T02:11:34;8.70;99.90
30150;DHT22;16962;48.646;9.026;2022-09-27T02:14:25;8.70;1.00
30150;DHT22;16962;48.646;9.026;2022-09-27T02:17:41;8.70;99.90
30150;DHT22;16962;48.646;9.026;2022-09-27T02:26:15;8.70;92.80
30150;DHT22;16962;48.646;9.026;2022-09-27T02:29:21;8.70;99.90
30150;DHT22;16962;48.646;9.026;2022-09-27T02:32:10;8.70;99.90
30150;DHT22;16962;48.646;9.026;2022-09-27T02:35:01;8.70;99.90
30150;DHT22;16962;48.646;9.026;2022-09-27T02:37:49;8.60;99.90
30150;DHT22;16962;48.646;9.026;2022-09-27T02:40:43;8.60;1.00
30150;DHT22;16962;48.646;9.026;2022-09-27T02:43:31;8.70;1.00
30150;DHT22;16962;48.646;9.026;2022-09-27T02:52:59;8.60;1.00
30150;DHT22;16962;48.646;9.026;2022-09-27T02:56:01;8.60;1.00
30150;DHT22;16962;48.646;9.026;2022-09-27T02:59:12;8.60;1.00
30150;DHT22;16962;48.646;9.026;2022-09-27T03:02:26;8.50;1.00
30150;DHT22;16962;48.646;9.026;2022-09-27T03:05:20;8.30;99.90
30150;DHT22;16962;48.646;9.026;2022-09-27T03:08:09;8.20;99.90
30150;DHT22;16962;48.646;9.026;2022-09-27T03:10:59;8.10;1.00
30150;DHT22;16962;48.646;9.026;2022-09-27T03:13:46;8.10;17.30
30150;DHT22;16962;48.646;9.026;2022-09-27T03:16:54;8.10;1.00
30150;DHT22;16962;48.646;9.026;2022-09-27T03:19:42;8.10;99.90
30150;DHT22;16962;48.646;9.026;2022-09-27T03:22:33;8.10;99.90
30150;DHT22;16962;48.646;9.026;2022-09-27T03:25:20;8.20;1.00
30150;DHT22;16962;48.646;9.026;2022-09-27T03:28:08;8.20;99.90
30150;DHT22;16962;48.646;9.026;2022-09-27T03:30:55;8.20;4.90
30150;DHT22;16962;48.646;9.026;2022-09-27T03:33:42;8.20;1.00
30150;DHT22;16962;48.646;9.026;2022-09-27T03:36:32;8.20;99.90
30150;DHT22;16962;48.646;9.026;2022-09-27T03:39:19;8.30;99.90
30150;DHT22;16962;48.646;9.026;2022-09-27T03:42:06;8.20;99.90
30150;DHT22;16962;48.646;9.026;2022-09-27T03:44:55;8.20;99.90
30150;DHT22;16962;48.646;9.026;2022-09-27T03:47:45;8.20;18.30
30150;DHT22;16962;48.646;9.026;2022-09-27T03:50:34;8.10;99.90
30150;DHT22;16962;48.646;9.026;2022-09-27T03:53:22;8.10;99.90
30150;DHT22;16962;48.646;9.026;2022-09-27T03:56:09;8.10;1.00
30150;DHT22;16962;48.646;9.026;2022-09-27T03:58:59;8.10;1.00
30150;DHT22;16962;48.646;9.026;2022-09-27T04:01:47;8.10;99.90
30150;DHT22;16962;48.646;9.026;2022-09-27T04:04:37;8.10;99.90
30150;DHT22;16962;48.646;9.026;2022-09-27T04:07:24;8.00;99.90
30150;DHT22;16962;48.646;9.026;2022-09-27T04:10:13;8.00;99.90
30150;DHT22;16962;48.646;9.026;2022-09-27T04:13:00;8.00;1.00
30150;DHT22;16962;48.646;9.026;2022-09-27T04:15:47;8.00;99.90
30150;DHT22;16962;48.646;9.026;2022-09-27T04:18:38;7.90;1.00
30150;DHT22;16962;48.646;9.026;2022-09-27T04:21:28;7.90;67.00
30150;DHT22;16962;48.646;9.026;2022-09-27T04:24:15;7.90;99.90
30150;DHT22;16962;48.646;9.026;2022-09-27T04:27:04;7.90;99.90
30150;DHT22;16962;48.646;9.026;2022-09-27T04:29:51;7.90;99.90
30150;DHT22;16962;48.646;9.026;2022-09-27T04:32:42;7.90;99.90
30150;DHT22;16962;48.646;9.026;2022-09-27T04:35:31;7.90;99.90
30150;DHT22;16962;48.646;9.026;2022-09-27T04:38:37;7.90;46.00
30150;DHT22;16962;48.646;9.026;2022-09-27T04:41:28;7.90;32.50
30150;DHT22;16962;48.646;9.026;2022-09-27T04:44:17;7.90;1.00
30150;DHT22;16962;48.646;9.026;2022-09-27T04:47:09;7.90;99.90
30150;DHT22;16962;48.646;9.026;2022-09-27T04:49:56;7.80;99.90
30150;DHT22;16962;48.646;9.026;2022-09-27T04:52:48;7.80;99.90
30150;DHT22;16962;48.646;9.026;2022-09-27T04:55:35;7.90;1.00
30150;DHT22;16962;48.646;9.026;2022-09-27T04:58:22;7.90;1.00
30150;DHT22;16962;48.646;9.026;2022-09-27T05:01:10;7.80;1.00
30150;DHT22;16962;48.646;9.026;2022-09-27T05:03:57;7.80;99.90
30150;DHT22;16962;48.646;9.026;2022-09-27T05:06:44;7.80;99.90
30150;DHT22;16962;48.646;9.026;2022-09-27T05:09:31;7.80;99.90
30150;DHT22;16962;48.646;9.026;2022-09-27T05:12:21;7.80;99.90
30150;DHT22;16962;48.646;9.026;2022-09-27T05:15:08;7.80;99.90
30150;DHT22;16962;48.646;9.026;2022-09-27T05:17:55;7.80;99.90
30150;DHT22;16962;48.646;9.026;2022-09-27T05:20:44;7.80;99.90
30150;DHT22;16962;48.646;9.026;2022-09-27T05:23:31;7.80;99.90
30150;DHT22;16962;48.646;9.026;2022-09-27T05:26:18;7.80;99.90
30150;DHT22;16962;48.646;9.026;2022-09-27T05:29:05;7.70;99.90
30150;DHT22;16962;48.646;9.026;2022-09-27T05:31:52;7.70;99.90
30150;DHT22;16962;48.646;9.026;2022-09-27T05:34:40;7.70;99.90
30150;DHT22;16962;48.646;9.026;2022-09-27T05:37:29;7.70;1.00
30150;DHT22;16962;48.646;9.026;2022-09-27T05:40:22;7.60;1.00
30150;DHT22;16962;48.646;9.026;2022-09-27T05:43:28;7.60;53.00
30150;DHT22;16962;48.646;9.026;2022-09-27T05:46:15;7.60;99.90
30150;DHT22;16962;48.646;9.026;2022-09-27T05:49:02;7.60;99.90
30150;DHT22;16962;48.646;9.026;2022-09-27T05:51:50;7.60;99.90
30150;DHT22;16962;48.646;9.026;2022-09-27T05:54:39;7.60;99.90
30150;DHT22;16962;48.646;9.026;2022-09-27T05:57:26;7.60;99.90
30150;DHT22;16962;48.646;9.026;2022-09-27T06:00:16;7.60;22.70
30150;DHT22;16962;48.646;9.026;2022-09-27T06:03:05;7.70;1.00
30150;DHT22;16962;48.646;9.026;2022-09-27T06:05:53;7.70;1.00
30150;DHT22;16962;48.646;9.026;2022-09-27T06:08:41;7.80;99.90
30150;DHT22;16962;48.646;9.026;2022-09-27T06:11:28;7.90;99.90
30150;DHT22;16962;48.646;9.026;2022-09-27T06:14:15;7.90;99.90
30150;DHT22;16962;48.646;9.026;2022-09-27T06:17:03;8.00;58.80
30150;DHT22;16962;48.646;9.026;2022-09-27T06:19:53;8.10;1.00
30150;DHT22;16962;48.646;9.026;2022-09-27T06:22:40;8.20;1.00
30150;DHT22;16962;48.646;9.026;2022-09-27T06:25:30;8.20;99.90
30150;DHT22;16962;48.646;9.026;2022-09-27T06:28:24;8.30;99.90
30150;DHT22;16962;48.646;9.026;2022-09-27T06:31:11;8.20;99.90
30150;DHT22;16962;48.646;9.026;2022-09-27T06:34:01;8.10;99.90
30150;DHT22;16962;48.646;9.026;2022-09-27T06:36:49;8.10;99.90
30150;DHT22;16962;48.646;9.026;2022-09-27T06:39:38;8.10;99.90
30150;DHT22;16962;48.646;9.026;2022-09-27T06:42:26;8.10;99.90
30150;DHT22;16962;48.646;9.026;2022-09-27T06:45:13;8.20;99.90
30150;DHT22;16962;48.646;9.026;2022-09-27T06:48:08;8.10;99.90
30150;DHT22;16962;48.646;9.026;2022-09-27T06:50:56;8.00;99.90
30150;DHT22;16962;48.646;9.026;2022-09-27T06:54:01;8.00;99.90
30150;DHT22;16962;48.646;9.026;2022-09-27T06:56:54;8.00;99.90
30150;DHT22;16962;48.646;9.026;2022-09-27T06:59:48;8.20;99.90
30150;DHT22;16962;48.646;9.026;2022-09-27T07:02:55;8.20;99.90
30150;DHT22;16962;48.646;9.026;2022-09-27T07:06:04;8.30;99.90
30150;DHT22;16962;48.646;9.026;2022-09-27T07:08:53;8.40;99.90
30150;DHT22;16962;48.646;9.026;2022-09-27T07:11:44;8.50;99.90
30150;DHT22;16962;48.646;9.026;2022-09-27T07:14:32;8.50;52.20
30150;DHT22;16962;48.646;9.026;2022-09-27T07:17:20;8.50;49.60
30150;DHT22;16962;48.646;9.026;2022-09-27T07:20:09;8.50;12.80
30150;DHT22;16962;48.646;9.026;2022-09-27T07:22:59;8.50;1.00
30150;DHT22;16962;48.646;9.026;2022-09-27T07:25:46;8.70;1.00
30150;DHT22;16962;48.646;9.026;2022-09-27T07:28:36;8.60;1.00
30150;DHT22;16962;48.646;9.026;2022-09-27T07:31:26;8.70;1.00
30150;DHT22;16962;48.646;9.026;2022-09-27T07:34:14;8.80;1.00
30150;DHT22;16962;48.646;9.026;2022-09-27T07:37:05;8.90;1.00
30150;DHT22;16962;48.646;9.026;2022-09-27T07:39:54;8.90;1.00
30150;DHT22;16962;48.646;9.026;2022-09-27T07:42:52;9.00;1.00
30150;DHT22;16962;48.646;9.026;2022-09-27T07:45:40;9.00;1.00
30150;DHT22;16962;48.646;9.026;2022-09-27T07:48:28;9.10;1.00
30150;DHT22;16962;48.646;9.026;2022-09-27T07:51:16;9.20;1.00
30150;DHT22;16962;48.646;9.026;2022-09-27T07:54:04;9.20;1.00
30150;DHT22;16962;48.646;9.026;2022-09-27T07:56:55;9.20;1.00
30150;DHT22;16962;48.646;9.026;2022-09-27T07:59:47;9.20;1.00
30150;DHT22;16962;48.646;9.026;2022-09-27T08:02:35;9.20;99.90
30150;DHT22;16962;48.646;9.026;2022-09-27T08:05:29;9.40;99.90
30150;DHT22;16962;48.646;9.026;2022-09-27T08:08:17;9.80;99.90
30150;DHT22;16962;48.646;9.026;2022-09-27T08:11:16;10.10;99.90
30150;DHT22;16962;48.646;9.026;2022-09-27T08:14:08;10.30;99.90
30150;DHT22;16962;48.646;9.026;2022-09-27T08:16:55;10.30;99.90
30150;DHT22;16962;48.646;9.026;2022-09-27T08:19:45;10.20;99.90
30150;DHT22;16962;48.646;9.026;2022-09-27T08:22:41;10.30;99.90
30150;DHT22;16962;48.646;9.026;2022-09-27T08:25:30;10.40;99.90
30150;DHT22;16962;48.646;9.026;2022-09-27T08:28:20;10.60;99.90
30150;DHT22;16962;48.646;9.026;2022-09-27T08:31:14;10.60;99.90
30150;DHT22;16962;48.646;9.026;2022-09-27T08:34:02;10.30;99.90
30150;DHT22;16962;48.646;9.026;2022-09-27T08:36:51;9.90;99.90
30150;DHT22;16962;48.646;9.026;2022-09-27T08:39:41;9.40;99.90
30150;DHT22;16962;48.646;9.026;2022-09-27T08:42:45;8.90;99.90
30150;DHT22;16962;48.646;9.026;2022-09-27T08:48:58;8.50;1.00
30150;DHT22;16962;48.646;9.026;2022-09-27T08:51:53;8.60;1.00
30150;DHT22;16962;48.646;9.026;2022-09-27T08:54:42;8.50;1.00
30150;DHT22;16962;48.646;9.026;2022-09-27T08:57:31;8.60;1.00
30150;DHT22;16962;48.646;9.026;2022-09-27T09:00:18;8.50;1.00
30150;DHT22;16962;48.646;9.026;2022-09-27T09:03:18;8.60;1.00
30150;DHT22;16962;48.646;9.026;2022-09-27T09:16:07;9.50;99.90
30150;DHT22;16962;48.646;9.026;2022-09-27T09:26:18;11.80;99.90
30150;DHT22;16962;48.646;9.026;2022-09-27T09:35:38;13.10;99.90
30150;DHT22;16962;48.646;9.026;2022-09-27T09:41:41;14.00;99.90
30150;DHT22;16962;48.646;9.026;2022-09-27T09:44:57;14.70;99.90
30150;DHT22;16962;48.646;9.026;2022-09-27T09:48:02;14.60;99.90
30150;DHT22;16962;48.646;9.026;2022-09-27T09:50:56;14.70;99.90
30150;DHT22;16962;48.646;9.026;2022-09-27T09:54:01;15.70;99.90
30150;DHT22;16962;48.646;9.026;2022-09-27T10:00:20;12.20;99.90
30150;DHT22;16962;48.646;9.026;2022-09-27T10:03:13;12.30;99.90
30150;DHT22;16962;48.646;9.026;2022-09-27T10:06:05;13.20;99.90
30150;DHT22;16962;48.646;9.026;2022-09-27T10:08:55;12.70;99.90
30150;DHT22;16962;48.646;9.026;2022-09-27T10:11:47;13.10;99.90
30150;DHT22;16962;48.646;9.026;2022-09-27T10:14:37;13.80;99.90
30150;DHT22;16962;48.646;9.026;2022-09-27T10:17:36;13.40;99.90
30150;DHT22;16962;48.646;9.026;2022-09-27T10:23:26;12.00;99.90
30150;DHT22;16962;48.646;9.026;2022-09-27T10:26:18;11.30;99.90
30150;DHT22;16962;48.646;9.026;2022-09-27T10:29:32;10.90;99.90
30150;DHT22;16962;48.646;9.026;2022-09-27T10:32:30;10.60;99.90
30150;DHT22;16962;48.646;9.026;2022-09-27T10:35:30;10.90;99.90
30150;DHT22;16962;48.646;9.026;2022-09-27T10:47:07;11.50;99.90
30150;DHT22;16962;48.646;9.026;2022-09-27T10:50:04;11.70;99.90
30150;DHT22;16962;48.646;9.026;2022-09-27T10:53:16;13.00;99.90
30150;DHT22;16962;48.646;9.026;2022-09-27T10:56:26;13.20;99.90
30150;DHT22;16962;48.646;9.026;2022-09-27T10:59:18;12.60;99.90
30150;DHT22;16962;48.646;9.026;2022-09-27T11:02:25;12.50;99.90
30150;DHT22;16962;48.646;9.026;2022-09-27T11:08:23;12.70;99.90
30150;DHT22;16962;48.646;9.026;2022-09-27T11:11:26;14.30;99.90
30150;DHT22;16962;48.646;9.026;2022-09-27T11:20:35;14.20;67.80
30150;DHT22;16962;48.646;9.026;2022-09-27T11:29:38;11.10;99.90
30150;DHT22;16962;48.646;9.026;2022-09-27T11:41:59;10.80;99.90
30150;DHT22;16962;48.646;9.026;2022-09-27T11:45:51;10.80;99.90
30150;DHT22;16962;48.646;9.026;2022-09-27T11:49:22;10.90;99.90
30150;DHT22;16962;48.646;9.026;2022-09-27T11:52:34;10.80;99.90
30150;DHT22;16962;48.646;9.026;2022-09-27T11:55:36;10.80;99.90
30150;DHT22;16962;48.646;9.026;2022-09-27T12:01:58;10.30;99.90
30150;DHT22;16962;48.646;9.026;2022-09-27T12:14:37;9.10;1.00
30150;DHT22;16962;48.646;9.026;2022-09-27T12:17:33;9.10;1.00
30150;DHT22;16962;48.646;9.026;2022-09-27T12:20:31;9.20;1.00
30150;DHT22;16962;48.646;9.026;2022-09-27T12:23:25;9.20;1.00
30150;DHT22;16962;48.646;9.026;2022-09-27T12:26:35;9.30;19.50
30150;DHT22;16962;48.646;9.026;2022-09-27T12:29:29;9.40;50.40
30150;DHT22;16962;48.646;9.026;2022-09-27T12:32:26;9.40;3.70
30150;DHT22;16962;48.646;9.026;2022-09-27T12:35:27;9.40;1.00
30150;DHT22;16962;48.646;9.026;2022-09-27T12:38:22;9.30;1.00
30150;DHT22;16962;48.646;9.026;2022-09-27T12:41:13;9.30;10.10
30150;DHT22;16962;48.646;9.026;2022-09-27T12:44:03;9.30;24.30
30150;DHT22;16962;48.646;9.026;2022-09-27T12:47:13;9.20;25.30
30150;DHT22;16962;48.646;9.026;2022-09-27T12:50:54;9.20;63.90
30150;DHT22;16962;48.646;9.026;2022-09-27T12:59:48;10.30;1.00
30150;DHT22;16962;48.646;9.026;2022-09-27T13:12:20;10.10;1.00
30150;DHT22;16962;48.646;9.026;2022-09-27T13:24:41;9.90;1.00
30150;DHT22;16962;48.646;9.026;2022-09-27T13:27:38;10.00;1.00
30150;DHT22;16962;48.646;9.026;2022-09-27T13:36:26;10.40;1.00
30150;DHT22;16962;48.646;9.026;2022-09-27T13:39:18;11.80;99.90
30150;DHT22;16962;48.646;9.026;2022-09-27T13:42:20;12.10;99.90
30150;DHT22;16962;48.646;9.026;2022-09-27T13:45:21;11.50;99.90
30150;DHT22;16962;48.646;9.026;2022-09-27T13:48:56;10.90;99.90
30150;DHT22;16962;48.646;9.026;2022-09-27T13:51:55;10.80;99.90
30150;DHT22;16962;48.646;9.026;2022-09-27T13:57:59;10.40;99.90
30150;DHT22;16962;48.646;9.026;2022-09-27T14:00:53;10.40;99.90
30150;DHT22;16962;48.646;9.026;2022-09-27T14:03:55;10.40;99.90
30150;DHT22;16962;48.646;9.026;2022-09-27T14:06:51;10.40;99.90
30150;DHT22;16962;48.646;9.026;2022-09-27T14:09:44;10.30;99.90
30150;DHT22;16962;48.646;9.026;2022-09-27T14:12:38;10.20;99.90
30150;DHT22;16962;48.646;9.026;2022-09-27T14:15:37;10.20;99.90
30150;DHT22;16962;48.646;9.026;2022-09-27T14:18:27;10.40;99.90
30150;DHT22;16962;48.646;9.026;2022-09-27T14:21:27;10.60;99.90
30150;DHT22;16962;48.646;9.026;2022-09-27T14:24:27;11.10;99.90
30150;DHT22;16962;48.646;9.026;2022-09-27T14:27:28;11.70;99.90
30150;DHT22;16962;48.646;9.026;2022-09-27T14:33:03;11.30;99.90
30150;DHT22;16962;48.646;9.026;2022-09-27T14:35:51;12.70;99.90
30150;DHT22;16962;48.646;9.026;2022-09-27T14:38:57;13.10;99.90
30150;DHT22;16962;48.646;9.026;2022-09-27T14:41:47;12.20;99.90
30150;DHT22;16962;48.646;9.026;2022-09-27T14:44:34;12.10;99.90
30150;DHT22;16962;48.646;9.026;2022-09-27T14:47:24;11.80;99.90
30150;DHT22;16962;48.646;9.026;2022-09-27T14:50:27;11.00;99.90
30150;DHT22;16962;48.646;9.026;2022-09-27T14:53:23;10.50;99.90
30150;DHT22;16962;48.646;9.026;2022-09-27T14:56:19;10.30;99.90
30150;DHT22;16962;48.646;9.026;2022-09-27T14:59:17;10.30;99.90
30150;DHT22;16962;48.646;9.026;2022-09-27T15:02:17;10.60;99.90
30150;DHT22;16962;48.646;9.026;2022-09-27T15:05:15;11.40;99.90
30150;DHT22;16962;48.646;9.026;2022-09-27T15:08:04;12.00;99.90
30150;DHT22;16962;48.646;9.026;2022-09-27T15:10:53;13.10;99.90
30150;DHT22;16962;48.646;9.026;2022-09-27T15:13:41;13.80;99.90
30150;DHT22;16962;48.646;9.026;2022-09-27T15:16:30;13.90;98.00
30150;DHT22;16962;48.646;9.026;2022-09-27T15:25:34;12.30;90.00
30150;DHT22;16962;48.646;9.026;2022-09-27T15:28:22;11.10;94.20
30150;DHT22;16962;48.646;9.026;2022-09-27T15:31:14;10.70;97.90
30150;DHT22;16962;48.646;9.026;2022-09-27T15:34:04;10.30;99.90
30150;DHT22;16962;48.646;9.026;2022-09-27T15:37:03;10.30;99.90
30150;DHT22;16962;48.646;9.026;2022-09-27T15:39:52;10.30;99.90
30150;DHT22;16962;48.646;9.026;2022-09-27T15:42:57;10.20;99.90
30150;DHT22;16962;48.646;9.026;2022-09-27T15:45:51;10.10;99.90
30150;DHT22;16962;48.646;9.026;2022-09-27T15:48:41;10.00;99.90
30150;DHT22;16962;48.646;9.026;2022-09-27T15:51:40;10.00;99.90
30150;DHT22;16962;48.646;9.026;2022-09-27T15:54:31;10.00;99.90
30150;DHT22;16962;48.646;9.026;2022-09-27T15:57:28;10.70;99.90
30150;DHT22;16962;48.646;9.026;2022-09-27T16:00:17;12.00;99.90
30150;DHT22;16962;48.646;9.026;2022-09-27T16:03:05;11.40;99.50
30150;DHT22;16962;48.646;9.026;2022-09-27T16:05:55;10.60;99.90
30150;DHT22;16962;48.646;9.026;2022-09-27T16:08:43;10.20;99.90
30150;DHT22;16962;48.646;9.026;2022-09-27T16:11:31;10.00;99.90
30150;DHT22;16962;48.646;9.026;2022-09-27T16:14:18;9.90;99.90
30150;DHT22;16962;48.646;9.026;2022-09-27T16:17:08;9.80;99.90
30150;DHT22;16962;48.646;9.026;2022-09-27T16:19:57;9.70;99.90
30150;DHT22;16962;48.646;9.026;2022-09-27T16:22:44;9.70;99.90
30150;DHT22;16962;48.646;9.026;2022-09-27T16:25:32;9.60;99.90
30150;DHT22;16962;48.646;9.026;2022-09-27T16:28:21;9.50;99.90
30150;DHT22;16962;48.646;9.026;2022-09-27T16:31:08;9.50;99.90
30150;DHT22;16962;48.646;9.026;2022-09-27T16:33:57;9.30;99.90
30150;DHT22;16962;48.646;9.026;2022-09-27T16:36:48;9.20;99.90
30150;DHT22;16962;48.646;9.026;2022-09-27T16:39:35;9.10;99.90
30150;DHT22;16962;48.646;9.026;2022-09-27T16:42:25;9.00;99.90
30150;DHT22;16962;48.646;9.026;2022-09-27T16:45:14;8.90;99.90
30150;DHT22;16962;48.646;9.026;2022-09-27T16:48:05;8.90;99.90
30150;DHT22;16962;48.646;9.026;2022-09-27T16:50:52;8.80;99.90
30150;DHT22;16962;48.646;9.026;2022-09-27T16:53:58;8.70;99.90
30150;DHT22;16962;48.646;9.026;2022-09-27T16:56:45;8.70;99.90
30150;DHT22;16962;48.646;9.026;2022-09-27T16:59:32;8.70;99.90
30150;DHT22;16962;48.646;9.026;2022-09-27T17:02:20;8.70;99.90
30150;DHT22;16962;48.646;9.026;2022-09-27T17:05:09;8.70;99.90
30150;DHT22;16962;48.646;9.026;2022-09-27T17:07:57;8.70;99.90
30150;DHT22;16962;48.646;9.026;2022-09-27T17:10:44;8.70;99.90
30150;DHT22;16962;48.646;9.026;2022-09-27T17:13:33;8.60;99.90
30150;DHT22;16962;48.646;9.026;2022-09-27T17:16:21;8.60;99.90
30150;DHT22;16962;48.646;9.026;2022-09-27T17:19:14;8.60;99.90
30150;DHT22;16962;48.646;9.026;2022-09-27T17:22:02;8.60;99.90
30150;DHT22;16962;48.646;9.026;2022-09-27T17:24:52;8.50;99.90
30150;DHT22;16962;48.646;9.026;2022-09-27T17:27:43;8.50;99.90
30150;DHT22;16962;48.646;9.026;2022-09-27T17:30:30;8.50;99.90
30150;DHT22;16962;48.646;9.026;2022-09-27T17:33:18;8.40;99.90
30150;DHT22;16962;48.646;9.026;2022-09-27T17:36:13;8.30;99.90
30150;DHT22;16962;48.646;9.026;2022-09-27T17:39:02;8.20;99.90
30150;DHT22;16962;48.646;9.026;2022-09-27T17:41:52;8.00;99.90
30150;DHT22;16962;48.646;9.026;2022-09-27T17:44:39;7.90;99.90
30150;DHT22;16962;48.646;9.026;2022-09-27T17:47:27;7.80;99.90
30150;DHT22;16962;48.646;9.026;2022-09-27T17:50:32;7.80;1.00
30150;DHT22;16962;48.646;9.026;2022-09-27T17:53:22;7.70;1.00
30150;DHT22;16962;48.646;9.026;2022-09-27T17:56:10;7.70;1.00
30150;DHT22;16962;48.646;9.026;2022-09-27T17:58:58;7.60;1.00
30150;DHT22;16962;48.646;9.026;2022-09-27T18:01:47;7.60;1.00
30150;DHT22;16962;48.646;9.026;2022-09-27T18:04:38;7.50;1.00
30150;DHT22;16962;48.646;9.026;2022-09-27T18:07:25;7.50;1.00
30150;DHT22;16962;48.646;9.026;2022-09-27T18:10:13;7.50;19.40
30150;DHT22;16962;48.646;9.026;2022-09-27T18:13:02;7.40;50.00
30150;DHT22;16962;48.646;9.026;2022-09-27T18:15:55;7.40;99.90
30150;DHT22;16962;48.646;9.026;2022-09-27T18:18:45;7.30;99.90
30150;DHT22;16962;48.646;9.026;2022-09-27T18:21:34;7.20;99.90
30150;DHT22;16962;48.646;9.026;2022-09-27T18:24:21;7.10;99.90
30150;DHT22;16962;48.646;9.026;2022-09-27T18:27:09;7.10;99.90
30150;DHT22;16962;48.646;9.026;2022-09-27T18:30:01;7.10;99.90
30150;DHT22;16962;48.646;9.026;2022-09-27T18:32:49;7.10;1.00
30150;DHT22;16962;48.646;9.026;2022-09-27T18:35:37;7.10;1.00
30150;DHT22;16962;48.646;9.026;2022-09-27T18:38:25;7.00;1.00
30150;DHT22;16962;48.646;9.026;2022-09-27T18:41:18;7.00;10.00
30150;DHT22;16962;48.646;9.026;2022-09-27T18:44:11;7.00;31.00
30150;DHT22;16962;48.646;9.026;2022-09-27T18:47:02;7.00;92.10
30150;DHT22;16962;48.646;9.026;2022-09-27T18:49:49;6.90;99.90
30150;DHT22;16962;48.646;9.026;2022-09-27T18:52:37;6.90;64.20
30150;DHT22;16962;48.646;9.026;2022-09-27T18:55:24;6.80;72.60
30150;DHT22;16962;48.646;9.026;2022-09-27T18:58:11;6.80;96.30
30150;DHT22;16962;48.646;9.026;2022-09-27T19:01:03;6.70;99.90
30150;DHT22;16962;48.646;9.026;2022-09-27T19:03:51;6.70;99.90
30150;DHT22;16962;48.646;9.026;2022-09-27T19:06:43;6.60;99.90
30150;DHT22;16962;48.646;9.026;2022-09-27T19:09:30;6.60;99.90
30150;DHT22;16962;48.646;9.026;2022-09-27T19:12:17;6.50;99.90
30150;DHT22;16962;48.646;9.026;2022-09-27T19:15:05;6.50;99.90
30150;DHT22;16962;48.646;9.026;2022-09-27T19:17:54;6.40;99.90
30150;DHT22;16962;48.646;9.026;2022-09-27T19:20:42;6.40;99.90
30150;DHT22;16962;48.646;9.026;2022-09-27T19:23:29;6.30;99.90
30150;DHT22;16962;48.646;9.026;2022-09-27T19:26:19;6.30;1.00
30150;DHT22;16962;48.646;9.026;2022-09-27T19:29:07;6.30;1.00
30150;DHT22;16962;48.646;9.026;2022-09-27T19:31:54;6.30;1.00
30150;DHT22;16962;48.646;9.026;2022-09-27T19:34:43;6.30;1.00
30150;DHT22;16962;48.646;9.026;2022-09-27T19:37:32;6.20;1.00
30150;DHT22;16962;48.646;9.026;2022-09-27T19:40:19;6.20;1.00
30150;DHT22;16962;48.646;9.026;2022-09-27T19:43:07;6.20;1.00
30150;DHT22;16962;48.646;9.026;2022-09-27T19:45:54;6.10;1.00
30150;DHT22;16962;48.646;9.026;2022-09-27T19:48:45;6.10;3.80
30150;DHT22;16962;48.646;9.026;2022-09-27T19:51:33;6.10;58.30
30150;DHT22;16962;48.646;9.026;2022-09-27T19:54:20;6.00;99.90
30150;DHT22;16962;48.646;9.026;2022-09-27T19:57:08;6.10;99.90
30150;DHT22;16962;48.646;9.026;2022-09-27T19:59:55;6.10;99.90
30150;DHT22;16962;48.646;9.026;2022-09-27T20:02:42;6.10;99.90
30150;DHT22;16962;48.646;9.026;2022-09-27T20:05:31;6.10;99.90
30150;DHT22;16962;48.646;9.026;2022-09-27T20:08:21;6.20;1.00
30150;DHT22;16962;48.646;9.026;2022-09-27T20:11:11;6.20;1.00
30150;DHT22;16962;48.646;9.026;2022-09-27T20:13:59;6.20;99.90
30150;DHT22;16962;48.646;9.026;2022-09-27T20:16:46;6.20;99.90
30150;DHT22;16962;48.646;9.026;2022-09-27T20:19:33;6.00;1.00
30150;DHT22;16962;48.646;9.026;2022-09-27T20:22:20;6.00;1.00
30150;DHT22;16962;48.646;9.026;2022-09-27T20:25:10;6.10;1.00
30150;DHT22;16962;48.646;9.026;2022-09-27T20:27:57;6.10;46.40
30150;DHT22;16962;48.646;9.026;2022-09-27T20:30:57;6.10;99.90
30150;DHT22;16962;48.646;9.026;2022-09-27T20:33:45;6.00;99.90
30150;DHT22;16962;48.646;9.026;2022-09-27T20:36:38;6.00;99.90
30150;DHT22;16962;48.646;9.026;2022-09-27T20:39:26;6.00;99.90
30150;DHT22;16962;48.646;9.026;2022-09-27T20:42:13;6.10;99.90
30150;DHT22;16962;48.646;9.026;2022-09-27T20:45:02;6.10;99.90
30150;DHT22;16962;48.646;9.026;2022-09-27T20:47:49;6.10;99.90
30150;DHT22;16962;48.646;9.026;2022-09-27T20:50:36;6.10;99.90
30150;DHT22;16962;48.646;9.026;2022-09-27T20:53:24;6.10;1.00
30150;DHT22;16962;48.646;9.026;2022-09-27T20:56:17;6.10;99.90
30150;DHT22;16962;48.646;9.026;2022-09-27T20:59:08;6.20;1.00
30150;DHT22;16962;48.646;9.026;2022-09-27T21:02:00;6.20;99.90
30150;DHT22;16962;48.646;9.026;2022-09-27T21:04:47;6.20;99.90
30150;DHT22;16962;48.646;9.026;2022-09-27T21:07:34;6.20;1.00
30150;DHT22;16962;48.646;9.026;2022-09-27T21:10:26;6.20;99.90
30150;DHT22;16962;48.646;9.026;2022-09-27T21:13:15;6.30;99.90
30150;DHT22;16962;48.646;9.026;2022-09-27T21:16:03;6.30;99.90